Time;durP1;ratioP1;P1;durP2;ratioP2;P2;SDS_P1;SDS_P2;PMS_P1;PMS_P2;Temp;Humidity;BMP_temperature;BMP_pressure;BME280_temperature;BME280_humidity;BME280_pressure;Samples;Min_cycle;Max_cycle;Signal;HPM_P1;HPM_P2
2022/05/19 00:00:28;;;;;;;16.73;9.65;;;;;;;21.77;100.00;101409.56;5079513;28;20084;-78
2022/05/19 00:02:55;;;;;;;18.05;9.38;;;;;;;21.74;100.00;101401.28;5071500;28;20059;-77
2022/05/19 00:05:22;;;;;;;16.08;9.38;;;;;;;21.67;100.00;101401.50;5074651;28;20600;-80
2022/05/19 00:07:48;;;;;;;16.38;9.73;;;;;;;21.62;100.00;101394.41;5092820;28;20053;-78
2022/05/19 00:10:15;;;;;;;18.42;9.98;;;;;;;21.59;100.00;101400.16;5080353;28;20134;-77
2022/05/19 00:12:41;;;;;;;20.10;9.98;;;;;;;21.53;100.00;101391.50;5081699;28;20129;-77
2022/05/19 00:15:08;;;;;;;18.42;9.13;;;;;;;21.47;100.00;101395.38;5081537;28;20040;-80
2022/05/19 00:17:35;;;;;;;16.75;9.45;;;;;;;21.42;100.00;101384.69;5079124;28;20167;-77
2022/05/19 00:20:02;;;;;;;21.20;10.40;;;;;;;21.38;100.00;101396.09;5086487;28;20084;-76
2022/05/19 00:22:29;;;;;;;16.38;9.57;;;;;;;21.34;100.00;101394.63;5083879;28;20048;-79
2022/05/19 00:24:55;;;;;;;19.55;9.85;;;;;;;21.27;100.00;101389.25;5081017;28;20521;-78
2022/05/19 00:27:22;;;;;;;20.90;9.75;;;;;;;21.26;100.00;101399.69;5099130;28;20109;-77
2022/05/19 00:29:48;;;;;;;22.45;10.15;;;;;;;21.21;100.00;101394.66;5070730;28;20131;-78
2022/05/19 00:32:15;;;;;;;16.73;9.80;;;;;;;21.19;100.00;101393.56;5079044;28;20420;-78
2022/05/19 00:34:41;;;;;;;19.73;10.98;;;;;;;21.16;100.00;101398.03;5080140;28;20052;-77
2022/05/19 00:37:08;;;;;;;17.05;10.20;;;;;;;21.13;100.00;101395.34;5075488;28;20175;-78
2022/05/19 00:39:35;;;;;;;18.73;9.90;;;;;;;21.11;100.00;101393.00;5081176;28;20063;-78
2022/05/19 00:44:48;;;;;;;17.10;10.20;;;;;;;21.04;100.00;101381.19;5081672;28;20536;-78
2022/05/19 00:47:21;;;;;;;18.98;9.80;;;;;;;21.00;100.00;101380.53;5083267;28;20420;-79
2022/05/19 00:49:50;;;;;;;15.70;9.27;;;;;;;21.00;100.00;101386.16;5073701;28;20057;-78
2022/05/19 00:52:30;;;;;;;18.20;10.40;;;;;;;20.95;100.00;101375.47;5072963;28;20044;-79
2022/05/19 00:55:06;;;;;;;19.67;10.88;;;;;;;20.92;100.00;101390.41;5094809;27;20047;-79
2022/05/19 00:57:38;;;;;;;18.90;9.65;;;;;;;20.86;100.00;101378.16;5075085;28;20489;-78
2022/05/19 01:00:09;;;;;;;18.02;10.80;;;;;;;20.80;100.00;101389.19;5069008;28;20080;-78
2022/05/19 01:02:42;;;;;;;18.52;10.27;;;;;;;20.78;100.00;101385.25;5072369;28;20044;-77
2022/05/19 01:05:13;;;;;;;16.10;9.10;;;;;;;20.73;100.00;101378.16;5081259;28;20050;-77
2022/05/19 01:07:55;;;;;;;22.10;10.98;;;;;;;20.69;100.00;101371.06;5087967;28;20144;-77
2022/05/19 01:10:22;;;;;;;20.33;9.68;;;;;;;20.65;100.00;101374.00;5078740;28;20084;-76
2022/05/19 01:12:51;;;;;;;16.58;9.88;;;;;;;20.62;100.00;101368.50;5081469;28;20513;-77
2022/05/19 01:15:18;;;;;;;13.77;8.75;;;;;;;20.57;100.00;101363.41;5079898;28;20052;-78
2022/05/19 01:17:45;;;;;;;17.60;9.80;;;;;;;20.60;100.00;101373.78;5084199;28;20163;-76
2022/05/19 01:20:24;;;;;;;17.40;10.05;;;;;;;20.53;100.00;101357.13;5077327;28;20044;-78
2022/05/19 01:23:03;;;;;;;17.58;9.32;;;;;;;20.54;100.00;101359.50;5082801;28;20048;-76
2022/05/19 01:25:54;;;;;;;16.33;9.82;;;;;;;20.51;100.00;101357.56;5083120;28;20119;-77
2022/05/19 01:28:21;;;;;;;15.77;9.13;;;;;;;20.47;100.00;101358.91;5076600;28;20055;-77
2022/05/19 01:30:47;;;;;;;16.20;8.40;;;;;;;20.34;100.00;101348.47;5079848;28;20143;-77
2022/05/19 01:33:14;;;;;;;14.05;8.93;;;;;;;20.28;100.00;101355.09;5074236;28;20048;-79
2022/05/19 01:35:41;;;;;;;17.40;9.85;;;;;;;20.23;100.00;101355.66;5081875;28;20062;-78
2022/05/19 01:38:16;;;;;;;19.10;9.55;;;;;;;20.22;100.00;101359.72;5074704;28;20135;-77
2022/05/19 01:41:04;;;;;;;16.52;9.20;;;;;;;20.22;100.00;101360.47;5068777;28;20409;-77
2022/05/19 01:43:43;;;;;;;14.50;8.82;;;;;;;20.21;100.00;101358.13;5075480;28;20048;-77
2022/05/19 01:46:25;;;;;;;15.75;9.40;;;;;;;20.21;100.00;101356.09;5078060;28;20054;-77
2022/05/19 01:48:54;;;;;;;17.55;8.38;;;;;;;20.22;100.00;101354.84;5072286;28;20056;-77
2022/05/19 01:51:33;;;;;;;18.25;9.07;;;;;;;20.20;100.00;101353.75;5072531;28;20056;-77
2022/05/19 01:54:33;;;;;;;18.95;9.43;;;;;;;20.13;100.00;101349.13;5068205;28;20167;-77
2022/05/19 01:57:09;;;;;;;17.73;8.60;;;;;;;20.10;100.00;101340.78;5068037;28;20094;-76
2022/05/19 02:00:09;;;;;;;18.17;8.88;;;;;;;20.10;100.00;101340.78;5083684;28;20054;-77
2022/05/19 02:03:05;;;;;;;15.90;8.73;;;;;;;20.07;100.00;101342.47;5066406;28;20481;-77
2022/05/19 02:05:46;;;;;;;16.60;8.70;;;;;;;20.06;100.00;101337.28;5068779;28;20143;-77
2022/05/19 02:08:18;;;;;;;16.25;8.73;;;;;;;20.03;100.00;101332.56;5077158;28;20056;-77
2022/05/19 02:10:48;;;;;;;24.05;9.02;;;;;;;20.05;100.00;101335.72;5068178;28;20135;-76
2022/05/19 02:13:16;;;;;;;15.60;8.43;;;;;;;20.08;100.00;101335.59;5069953;28;20115;-77
2022/05/19 02:15:45;;;;;;;16.35;8.07;;;;;;;20.00;100.00;101330.66;5074348;28;20091;-77
2022/05/19 02:18:15;;;;;;;16.90;8.52;;;;;;;19.98;100.00;101325.47;5082935;28;20036;-77
2022/05/19 02:20:44;;;;;;;15.00;8.18;;;;;;;19.98;100.00;101333.13;5085931;28;20134;-74
2022/05/19 02:23:11;;;;;;;16.25;7.85;;;;;;;20.01;100.00;101321.78;5079524;28;20131;-76
2022/05/19 02:25:53;;;;;;;15.82;8.15;;;;;;;20.03;100.00;101318.50;5071468;28;20040;-77
2022/05/19 02:28:28;;;;;;;19.30;7.68;;;;;;;20.08;100.00;101324.38;5082934;28;20086;-76
2022/05/19 02:30:56;;;;;;;14.98;7.43;;;;;;;20.09;100.00;101323.13;5075875;28;20094;-76
2022/05/19 02:33:23;;;;;;;14.75;7.88;;;;;;;20.12;100.00;101329.91;5085463;28;20044;-76
2022/05/19 02:35:50;;;;;;;13.82;7.93;;;;;;;20.23;100.00;101333.19;5070935;28;20049;-76
2022/05/19 02:38:18;;;;;;;17.08;7.80;;;;;;;20.33;100.00;101323.63;5072888;28;20131;-76
2022/05/19 02:40:46;;;;;;;12.25;6.03;;;;;;;20.37;100.00;101318.69;5074151;28;20068;-77
2022/05/19 02:43:14;;;;;;;15.75;6.72;;;;;;;20.39;100.00;101313.41;5082841;28;20567;-77
2022/05/19 02:45:41;;;;;;;10.93;4.55;;;;;;;20.61;99.47;101321.94;5078112;28;20053;-78
2022/05/19 02:48:09;;;;;;;7.82;4.65;;;;;;;20.80;96.57;101335.75;5067769;28;20497;-77
2022/05/19 02:50:36;;;;;;;12.93;4.95;;;;;;;20.94;94.51;101328.88;5075580;28;20048;-77
2022/05/19 02:53:03;;;;;;;9.77;4.22;;;;;;;21.00;93.54;101324.25;5072156;28;20143;-77
2022/05/19 02:55:30;;;;;;;9.13;4.40;;;;;;;21.12;90.52;101327.03;5077360;28;20086;-77
2022/05/19 02:57:56;;;;;;;10.70;4.25;;;;;;;21.22;87.67;101325.06;5074026;28;20574;-77
2022/05/19 03:00:24;;;;;;;10.02;4.05;;;;;;;21.28;85.46;101328.88;5068017;28;20121;-77
2022/05/19 03:02:57;;;;;;;9.02;4.82;;;;;;;21.39;84.08;101324.44;5067516;28;20110;-78
2022/05/19 03:05:28;;;;;;;7.80;4.35;;;;;;;21.52;82.56;101333.63;5070423;28;20636;-77
2022/05/19 03:08:00;;;;;;;8.55;4.53;;;;;;;21.58;79.37;101325.38;5079854;28;20044;-77
2022/05/19 03:10:27;;;;;;;8.30;4.03;;;;;;;21.68;79.62;101327.81;5079346;28;20044;-78
2022/05/19 03:12:56;;;;;;;9.85;4.55;;;;;;;21.83;78.64;101320.41;5082946;28;20051;-76
2022/05/19 03:15:24;;;;;;;7.13;3.95;;;;;;;21.94;75.79;101325.66;5074977;28;20048;-77
2022/05/19 03:17:50;;;;;;;8.27;4.10;;;;;;;22.01;75.31;101326.16;5080658;28;20079;-78
2022/05/19 03:20:17;;;;;;;7.70;3.88;;;;;;;22.09;73.56;101337.94;5073400;28;20493;-78
2022/05/19 03:22:44;;;;;;;9.10;3.95;;;;;;;22.22;71.78;101336.63;5078941;28;20139;-77
2022/05/19 03:25:11;;;;;;;8.18;4.00;;;;;;;22.28;70.80;101343.22;5075521;28;20052;-77
2022/05/19 03:27:39;;;;;;;11.32;3.92;;;;;;;22.27;71.69;101349.31;5075955;28;20048;-78
2022/05/19 03:30:12;;;;;;;8.80;3.40;;;;;;;22.30;70.01;101342.75;5071924;28;20048;-79
2022/05/19 03:32:39;;;;;;;7.43;3.83;;;;;;;22.30;71.40;101343.53;5081678;28;20054;-77
2022/05/19 03:35:06;;;;;;;6.10;3.35;;;;;;;22.27;70.59;101344.47;5079776;28;20612;-80
2022/05/19 03:37:33;;;;;;;9.23;4.75;;;;;;;22.31;71.73;101342.28;5077505;28;20072;-77
2022/05/19 03:39:59;;;;;;;7.85;4.00;;;;;;;22.28;70.27;101334.75;5073647;28;20051;-78
2022/05/19 03:42:26;;;;;;;7.22;3.70;;;;;;;22.25;70.72;101338.53;5069880;28;20346;-79
2022/05/19 03:44:53;;;;;;;11.15;3.97;;;;;;;22.33;67.52;101336.19;5083430;28;20079;-77
2022/05/19 03:47:19;;;;;;;6.15;3.47;;;;;;;22.48;67.59;101337.22;5072928;28;20458;-77
2022/05/19 03:49:46;;;;;;;9.63;3.80;;;;;;;22.54;68.63;101336.16;5083519;28;20052;-77
2022/05/19 03:52:13;;;;;;;10.02;4.03;;;;;;;22.55;66.59;101326.44;5086888;28;20052;-77
2022/05/19 03:54:42;;;;;;;8.93;4.00;;;;;;;22.62;67.47;101331.03;5086753;28;20167;-79
2022/05/19 03:57:10;;;;;;;13.05;4.97;;;;;;;22.62;67.59;101333.84;5075827;28;20577;-78
2022/05/19 03:59:37;;;;;;;7.85;3.95;;;;;;;22.56;67.02;101322.38;5070781;28;20505;-78
2022/05/19 04:02:04;;;;;;;11.30;3.75;;;;;;;22.66;66.03;101338.09;5081707;28;20127;-77
2022/05/19 04:04:51;;;;;;;9.63;4.15;;;;;;;22.69;65.73;101325.84;5076030;28;20127;-78
2022/05/19 04:07:18;;;;;;;9.98;3.70;;;;;;;22.77;66.34;101319.94;5070960;28;20178;-77
2022/05/19 04:09:44;;;;;;;9.27;4.13;;;;;;;22.82;65.10;101319.31;5078929;28;20689;-77
2022/05/19 04:12:11;;;;;;;6.13;3.58;;;;;;;22.79;64.86;101323.88;5069832;28;20074;-80
2022/05/19 04:14:37;;;;;;;11.73;3.60;;;;;;;22.84;65.06;101328.09;5076349;28;20048;-78
2022/05/19 04:17:04;;;;;;;9.27;3.90;;;;;;;22.83;65.41;101329.34;5083145;28;20058;-77
2022/05/19 04:19:30;;;;;;;10.40;4.00;;;;;;;22.81;63.94;101341.09;5077212;28;20662;-78
2022/05/19 04:21:57;;;;;;;9.35;3.83;;;;;;;22.84;63.73;101340.16;5086500;28;20578;-77
2022/05/19 04:24:24;;;;;;;8.55;4.07;;;;;;;22.88;64.51;101343.63;5083412;28;20547;-78
2022/05/19 04:26:50;;;;;;;10.00;3.88;;;;;;;22.90;64.60;101338.28;5071142;28;20076;-77
2022/05/19 04:29:17;;;;;;;9.50;4.40;;;;;;;22.91;64.68;101341.91;5076528;28;20424;-77
2022/05/19 04:31:43;;;;;;;8.50;3.50;;;;;;;22.92;64.56;101332.19;5073312;28;20063;-77
2022/05/19 04:34:10;;;;;;;7.80;3.72;;;;;;;22.89;64.28;101338.75;5090213;28;20056;-77
2022/05/19 04:36:37;;;;;;;8.45;4.03;;;;;;;22.92;64.91;101332.19;5075446;28;20056;-77
2022/05/19 04:39:03;;;;;;;10.43;4.22;;;;;;;22.93;64.48;101331.72;5078638;28;20491;-77
2022/05/19 04:41:30;;;;;;;9.60;4.30;;;;;;;22.93;63.45;101340.19;5073400;28;20767;-77
2022/05/19 04:43:57;;;;;;;9.63;3.75;;;;;;;23.00;64.46;101339.09;5084861;28;20055;-77
2022/05/19 04:46:23;;;;;;;11.13;4.05;;;;;;;22.99;64.21;101346.78;5088648;28;20139;-78
2022/05/19 04:48:50;;;;;;;10.27;4.70;;;;;;;23.02;64.21;101343.03;5075566;28;20059;-78
2022/05/19 04:51:16;;;;;;;8.70;4.05;;;;;;;23.08;64.44;101340.38;5091909;28;20167;-78
2022/05/19 04:53:43;;;;;;;9.85;3.95;;;;;;;23.10;64.12;101344.28;5091534;28;20060;-77
2022/05/19 04:56:09;;;;;;;10.88;4.55;;;;;;;23.12;63.36;101335.38;5081391;28;20049;-78
2022/05/19 04:58:36;;;;;;;11.75;4.03;;;;;;;23.17;62.94;101343.19;5077623;28;20139;-79
2022/05/19 05:01:04;;;;;;;9.88;4.10;;;;;;;23.23;63.76;101344.19;5086934;28;20090;-78
2022/05/19 05:03:32;;;;;;;7.25;3.63;;;;;;;23.24;63.32;101342.91;5093073;28;20051;-80
2022/05/19 05:05:58;;;;;;;10.45;4.20;;;;;;;23.29;63.77;101339.50;5090436;28;20056;-79
2022/05/19 05:08:25;;;;;;;15.55;6.10;;;;;;;23.31;61.94;101348.25;5081780;28;20052;-79
2022/05/19 05:10:51;;;;;;;6.85;3.80;;;;;;;23.39;62.42;101338.25;5074285;28;20045;-79
2022/05/19 05:13:18;;;;;;;9.23;3.85;;;;;;;23.46;62.96;101337.91;5086306;28;20112;-80
2022/05/19 05:15:45;;;;;;;11.85;3.80;;;;;;;23.48;62.07;101333.38;5093603;28;20047;-80
2022/05/19 05:18:11;;;;;;;8.35;3.70;;;;;;;23.54;62.25;101339.97;5090063;28;20103;-79
2022/05/19 05:20:41;;;;;;;10.05;3.85;;;;;;;23.60;62.08;101340.09;5086665;28;20044;-78
2022/05/19 05:23:08;;;;;;;9.93;3.65;;;;;;;23.66;62.18;101339.00;5087274;28;20074;-80
2022/05/19 05:25:35;;;;;;;9.00;3.65;;;;;;;23.67;60.75;101334.94;5092183;28;20068;-80
2022/05/19 05:28:03;;;;;;;8.93;3.85;;;;;;;23.67;60.91;101329.28;5094166;28;20067;-81
2022/05/19 05:30:30;;;;;;;8.77;3.60;;;;;;;23.80;60.58;101348.88;5095166;28;20075;-79
2022/05/19 05:33:03;;;;;;;9.13;3.70;;;;;;;23.83;60.80;101356.41;5074605;28;20060;-80
2022/05/19 05:35:30;;;;;;;9.38;4.25;;;;;;;23.92;60.16;101365.66;5080658;28;20048;-80
2022/05/19 05:37:57;;;;;;;9.35;3.38;;;;;;;23.89;61.02;101388.44;5088587;28;20127;-80
2022/05/19 05:40:26;;;;;;;9.40;3.70;;;;;;;23.83;65.43;101430.66;5085457;28;20078;-80
2022/05/19 05:42:53;;;;;;;6.50;3.75;;;;;;;23.75;65.18;101418.09;5083882;28;20048;-80
2022/05/19 05:45:20;;;;;;;8.02;3.58;;;;;;;23.69;65.56;101431.28;5084998;28;20054;-79
2022/05/19 05:47:46;;;;;;;7.03;3.88;;;;;;;23.61;65.96;101417.94;5083793;28;20063;-79
2022/05/19 05:50:14;;;;;;;10.50;4.15;;;;;;;23.62;65.58;101368.69;5072549;28;20063;-78
2022/05/19 05:52:40;;;;;;;10.13;3.75;;;;;;;23.52;66.00;101393.31;5081199;28;20052;-80
2022/05/19 05:55:07;;;;;;;13.93;4.75;;;;;;;23.54;66.76;101430.34;5080796;28;20070;-73
2022/05/19 05:57:34;;;;;;;10.48;4.32;;;;;;;23.45;67.13;101423.91;5081896;28;20063;-79
2022/05/19 06:00:01;;;;;;;10.23;4.18;;;;;;;23.42;68.02;101425.63;5080789;28;20773;-77
2022/05/19 06:02:28;;;;;;;9.00;4.57;;;;;;;23.32;69.10;101424.03;5080593;28;20056;-74
2022/05/19 06:04:54;;;;;;;13.55;5.20;;;;;;;23.35;69.36;101405.38;5068312;28;20052;-74
2022/05/19 06:07:21;;;;;;;11.70;4.55;;;;;;;23.26;71.43;101453.34;5076546;28;20048;-76
2022/05/19 06:09:49;;;;;;;13.65;4.78;;;;;;;23.24;71.09;101450.22;5083445;28;20039;-75
2022/05/19 06:12:16;;;;;;;10.20;3.92;;;;;;;23.20;73.98;101475.75;5073915;28;20064;-76
2022/05/19 06:14:42;;;;;;;10.23;3.80;;;;;;;23.27;72.37;101474.69;5078250;28;20072;-76
2022/05/19 06:17:09;;;;;;;14.18;4.50;;;;;;;23.38;71.78;101427.81;5081665;28;20132;-76
2022/05/19 06:19:36;;;;;;;11.23;4.32;;;;;;;23.43;72.94;101454.66;5080932;28;20072;-76
2022/05/19 06:22:02;;;;;;;12.23;4.22;;;;;;;23.59;70.96;101438.19;5078805;28;20051;-77
2022/05/19 06:24:29;;;;;;;14.68;4.57;;;;;;;23.76;69.76;101447.94;5080337;28;20085;-76
2022/05/19 06:26:56;;;;;;;13.70;5.03;;;;;;;23.85;69.27;101439.47;5074649;28;20529;-76
2022/05/19 06:29:22;;;;;;;9.90;4.45;;;;;;;24.06;68.75;101435.69;5087930;28;20064;-78
2022/05/19 06:31:49;;;;;;;14.35;5.00;;;;;;;24.20;67.96;101420.16;5070796;28;20135;-76
2022/05/19 06:34:16;;;;;;;17.35;4.32;;;;;;;24.33;67.34;101423.56;5069647;28;20505;-76
2022/05/19 06:36:46;;;;;;;15.90;5.05;;;;;;;24.36;65.61;101431.88;5070903;28;20064;-78
2022/05/19 06:39:16;;;;;;;11.23;4.43;;;;;;;24.30;66.93;101433.78;5080912;28;20091;-75
2022/05/19 06:42:02;;;;;;;9.10;4.13;;;;;;;24.22;66.27;101434.56;5071456;28;20064;-74
2022/05/19 06:44:34;;;;;;;11.18;4.15;;;;;;;24.34;66.12;101447.75;5081172;28;20746;-74
2022/05/19 06:47:03;;;;;;;11.48;4.15;;;;;;;24.47;66.24;101437.81;5078906;28;20051;-75
2022/05/19 06:49:29;;;;;;;12.45;4.50;;;;;;;24.42;65.25;101437.69;5075100;28;20565;-77
2022/05/19 06:51:56;;;;;;;6.60;2.92;;;;;;;24.39;62.95;101441.44;5079978;28;20504;-75
2022/05/19 06:54:23;;;;;;;12.80;4.65;;;;;;;24.48;63.89;101436.59;5078410;28;20059;-77
2022/05/19 06:56:48;;;;;;;10.73;4.00;;;;;;;24.60;63.27;101426.31;5079451;28;20139;-76
2022/05/19 06:59:16;;;;;;;9.02;4.15;;;;;;;24.73;62.81;101435.41;5076851;28;20455;-76
2022/05/19 07:01:47;;;;;;;13.05;4.47;;;;;;;24.83;62.14;101432.06;5081633;28;20056;-75
2022/05/19 07:04:16;;;;;;;11.80;4.30;;;;;;;24.91;61.51;101433.28;5089154;28;20052;-77
2022/05/19 07:06:43;;;;;;;12.55;4.15;;;;;;;24.95;61.58;101433.91;5081719;28;20132;-76
2022/05/19 07:09:09;;;;;;;11.85;4.57;;;;;;;25.14;60.16;101431.75;5082841;28;20045;-78
2022/05/19 07:11:36;;;;;;;11.10;4.35;;;;;;;25.08;59.77;101422.38;5072419;28;20048;-76
2022/05/19 07:14:06;;;;;;;8.65;4.10;;;;;;;25.00;57.61;101426.78;5077812;28;20131;-77
2022/05/19 07:16:34;;;;;;;10.05;4.20;;;;;;;25.03;59.33;101418.13;5087108;28;20052;-75
2022/05/19 07:21:47;;;;;;;;;;;;;;;24.87;58.28;101429.06;5087053;28;20140;-74
2022/05/19 07:24:16;;;;;;;10.73;4.28;;;;;;;24.91;58.53;101430.44;5081558;28;19955;-75
2022/05/19 07:26:45;;;;;;;15.20;4.72;;;;;;;25.04;58.84;101433.09;5076354;28;20060;-76
2022/05/19 07:29:12;;;;;;;11.38;4.50;;;;;;;25.06;58.89;101428.50;5092783;28;20122;-74
2022/05/19 07:31:40;;;;;;;13.45;4.75;;;;;;;25.13;59.44;101425.31;5082434;28;20087;-77
2022/05/19 07:34:10;;;;;;;13.20;5.10;;;;;;;25.27;59.26;101412.47;5070523;28;20129;-75
2022/05/19 07:36:37;;;;;;;11.95;4.40;;;;;;;25.38;58.02;101420.47;5073643;28;20053;-76
2022/05/19 07:39:04;;;;;;;8.30;4.25;;;;;;;25.30;56.37;101410.75;5077533;28;20121;-77
2022/05/19 07:41:31;;;;;;;8.20;4.18;;;;;;;25.47;56.64;101400.59;5088392;28;20048;-77
2022/05/19 07:43:59;;;;;;;11.48;4.03;;;;;;;25.49;56.41;101390.31;5087950;28;20193;-72
2022/05/19 07:46:27;;;;;;;11.95;4.00;;;;;;;25.46;56.65;101393.34;5084801;28;20084;-74
2022/05/19 07:48:55;;;;;;;11.45;4.40;;;;;;;25.54;54.73;101395.31;5074132;28;20127;-74
2022/05/19 07:51:24;;;;;;;8.43;4.65;;;;;;;25.65;55.09;101380.59;5076139;28;20054;-75
2022/05/19 07:53:52;;;;;;;7.20;3.92;;;;;;;25.73;54.94;101376.09;5081091;28;20570;-75
2022/05/19 07:56:18;;;;;;;10.27;4.07;;;;;;;25.69;55.07;101379.13;5086903;28;20102;-74
2022/05/19 07:58:48;;;;;;;10.80;3.90;;;;;;;25.68;54.21;101371.13;5074157;28;20048;-78
2022/05/19 08:01:15;;;;;;;11.63;4.53;;;;;;;25.81;54.53;101380.13;5072373;28;20412;-75
2022/05/19 08:03:41;;;;;;;13.05;3.75;;;;;;;25.93;54.50;101384.72;5071861;28;20110;-75
2022/05/19 08:06:10;;;;;;;8.80;3.67;;;;;;;25.98;53.29;101375.59;5076141;28;20131;-74
2022/05/19 08:08:38;;;;;;;7.82;3.83;;;;;;;26.10;53.37;101366.78;5086063;28;20128;-74
2022/05/19 08:11:05;;;;;;;8.63;3.90;;;;;;;26.32;53.31;101372.06;5085637;28;20048;-76
2022/05/19 08:16:18;;;;;;;10.18;4.07;;;;;;;26.37;52.59;101354.34;5081581;28;20143;-75
2022/05/19 08:18:45;;;;;;;9.85;3.65;;;;;;;26.40;52.07;101362.66;5074926;28;20048;-74
2022/05/19 08:21:12;;;;;;;10.15;3.83;;;;;;;26.37;52.00;101360.03;5076434;28;20040;-77
2022/05/19 08:23:42;;;;;;;9.25;3.80;;;;;;;26.36;51.76;101358.47;5074570;28;20059;-74
2022/05/19 08:26:10;;;;;;;7.07;3.55;;;;;;;26.29;51.33;101342.59;5087347;28;20051;-74
2022/05/19 08:28:38;;;;;;;12.50;4.60;;;;;;;26.32;51.87;101350.13;5074393;28;20056;-76
2022/05/19 08:31:09;;;;;;;10.50;4.15;;;;;;;26.37;51.54;101346.63;5086595;28;20138;-75
2022/05/19 08:33:37;;;;;;;10.95;3.80;;;;;;;26.37;50.08;101352.31;5082945;28;20073;-75
2022/05/19 08:36:05;;;;;;;12.43;4.05;;;;;;;26.52;51.53;101347.38;5091366;28;20081;-78
2022/05/19 08:38:31;;;;;;;10.13;4.32;;;;;;;26.67;51.56;101342.50;5081778;28;20045;-76
2022/05/19 08:41:02;;;;;;;13.25;4.13;;;;;;;26.83;51.04;101341.16;5072920;28;20044;-78
2022/05/19 08:43:38;;;;;;;8.50;4.00;;;;;;;26.95;51.06;101334.34;5086376;28;20054;-76
2022/05/19 08:46:04;;;;;;;8.02;3.65;;;;;;;27.00;50.42;101331.59;5076708;28;20051;-79
2022/05/19 08:48:32;;;;;;;13.45;4.93;;;;;;;27.01;50.08;101338.84;5086266;28;20090;-76
2022/05/19 08:51:04;;;;;;;7.85;3.20;;;;;;;27.10;50.04;101326.56;5076757;28;20044;-74
2022/05/19 08:53:38;;;;;;;8.90;4.20;;;;;;;27.08;50.32;101324.22;5089143;28;20054;-77
2022/05/19 08:56:15;;;;;;;7.30;3.92;;;;;;;27.16;49.83;101321.72;5083684;28;20412;-78
2022/05/19 08:58:57;;;;;;;10.40;4.00;;;;;;;27.25;49.26;101307.41;5074129;28;20152;-76
2022/05/19 09:01:32;;;;;;;15.82;5.50;;;;;;;27.30;49.71;101309.53;5072584;28;20634;-76
2022/05/19 09:04:05;;;;;;;10.40;3.72;;;;;;;27.30;48.38;101309.53;5069749;28;20129;-77
2022/05/19 09:07:56;;;;;;;9.25;3.90;;;;;;;27.31;48.93;101309.03;5085383;28;20056;-77
2022/05/19 09:09:57;;;;;;;10.32;4.15;;;;;;;27.21;48.40;101301.91;5094745;28;20126;-76
2022/05/19 09:12:26;;;;;;;7.88;4.10;;;;;;;27.18;49.23;101296.44;5078153;28;20056;-77
2022/05/19 09:14:53;;;;;;;12.15;4.32;;;;;;;27.17;49.60;101294.88;5076582;28;20143;-77
2022/05/19 09:17:26;;;;;;;12.38;4.10;;;;;;;27.20;49.71;101288.22;5087204;28;20040;-77
2022/05/19 09:19:59;;;;;;;10.82;4.32;;;;;;;27.26;50.20;101289.84;5077538;28;20056;-76
2022/05/19 09:22:33;;;;;;;12.88;4.53;;;;;;;27.24;49.56;101285.97;5081642;28;20048;-77
2022/05/19 09:25:04;;;;;;;9.27;4.30;;;;;;;27.34;49.82;101284.53;5081766;28;20047;-75
2022/05/19 09:27:35;;;;;;;10.70;4.22;;;;;;;27.41;49.21;101293.38;5082028;28;20044;-78
2022/05/19 09:30:03;;;;;;;7.20;3.70;;;;;;;27.47;49.12;101284.16;5081242;28;20054;-71
2022/05/19 09:32:34;;;;;;;7.97;3.47;;;;;;;27.34;47.25;101285.28;5078656;28;20058;-71
2022/05/19 09:35:11;;;;;;;8.10;3.47;;;;;;;27.56;48.71;101275.47;5072979;28;20138;-75
2022/05/19 09:37:49;;;;;;;9.70;3.92;;;;;;;27.72;48.81;101261.41;5075712;28;20056;-76
2022/05/19 09:40:23;;;;;;;7.28;4.05;;;;;;;27.80;47.82;101264.59;5074442;28;20044;-75
2022/05/19 09:43:09;;;;;;;7.18;4.05;;;;;;;27.96;48.47;101261.91;5072296;28;20058;-75
2022/05/19 09:45:42;;;;;;;12.40;3.72;;;;;;;27.95;47.52;101251.81;5072506;28;20103;-76
2022/05/19 09:48:11;;;;;;;9.13;3.70;;;;;;;28.05;46.90;101253.19;5082338;28;20123;-77
2022/05/19 09:50:50;;;;;;;7.93;3.65;;;;;;;28.14;47.46;101263.59;5075747;28;20129;-71
2022/05/19 09:53:22;;;;;;;7.72;3.95;;;;;;;28.36;47.31;101258.84;5085662;28;20059;-72
2022/05/19 09:55:57;;;;;;;8.25;3.65;;;;;;;28.34;46.56;101255.72;5080646;28;20052;-71
2022/05/19 09:58:28;;;;;;;13.38;4.05;;;;;;;28.34;46.25;101261.41;5086996;28;20467;-74
2022/05/19 10:01:03;;;;;;;12.45;5.47;;;;;;;28.38;46.03;101261.94;5078646;28;20500;-77
2022/05/19 10:03:51;;;;;;;;;;;;;;;28.55;46.10;101264.94;5085835;28;20050;-78
2022/05/19 10:06:21;;;;;;;9.75;3.22;;;;;;;28.58;45.92;101266.78;5076006;28;20447;-78
2022/05/19 10:08:57;;;;;;;8.32;3.97;;;;;;;28.75;45.28;101264.81;5076589;28;20075;-78
2022/05/19 10:11:27;;;;;;;8.75;3.75;;;;;;;28.77;44.62;101259.38;5072504;28;20056;-77
2022/05/19 10:14:07;;;;;;;12.15;4.07;;;;;;;29.03;44.67;101260.81;5068322;28;20122;-79
2022/05/19 10:16:50;;;;;;;8.05;3.85;;;;;;;29.21;44.86;101245.31;5079391;28;20128;-80
2022/05/19 10:19:40;;;;;;;8.15;3.90;;;;;;;29.52;44.72;101242.28;5071344;28;20480;-78
2022/05/19 10:22:18;;;;;;;9.15;3.45;;;;;;;29.68;43.74;101239.50;5082809;28;20051;-79
2022/05/19 10:25:17;;;;;;;11.23;4.20;;;;;;;29.83;43.76;101230.66;5077400;28;20053;-78
2022/05/19 10:31:19;;;;;;;5.72;3.70;;;;;;;30.20;43.20;101219.75;5067857;28;20137;-73
2022/05/19 10:33:49;;;;;;;6.47;3.95;;;;;;;30.40;42.80;101213.00;5076018;28;20094;-77
2022/05/19 10:36:16;;;;;;;8.98;4.32;;;;;;;30.36;42.63;101209.63;5078585;28;20530;-78
2022/05/19 10:39:01;;;;;;;8.18;3.88;;;;;;;30.36;42.53;101210.41;5074087;28;20056;-79
2022/05/19 10:41:48;;;;;;;8.85;4.32;;;;;;;30.59;41.99;101193.97;5075113;28;20056;-78
2022/05/19 10:44:42;;;;;;;8.75;3.63;;;;;;;30.55;42.03;101199.19;5070513;28;20461;-78
2022/05/19 10:47:21;;;;;;;7.95;3.90;;;;;;;30.78;41.28;101189.25;5069228;28;20052;-76
2022/05/19 10:49:54;;;;;;;9.07;3.78;;;;;;;30.82;41.07;101176.25;5068928;28;20084;-79
2022/05/19 10:52:26;;;;;;;8.93;3.90;;;;;;;30.99;41.01;101176.94;5062963;28;20507;-77
2022/05/19 10:55:04;;;;;;;9.07;4.05;;;;;;;30.98;40.46;101157.47;5076717;28;20047;-78
2022/05/19 10:58:01;;;;;;;6.88;3.90;;;;;;;31.31;39.86;101162.97;5065725;28;20191;-77
2022/05/19 11:00:57;;;;;;;7.30;3.38;;;;;;;31.56;39.67;101162.56;5072933;28;20060;-80
2022/05/19 11:03:44;;;;;;;7.90;3.50;;;;;;;31.72;38.04;101158.75;5074197;28;20048;-77
2022/05/19 11:06:48;;;;;;;11.75;4.30;;;;;;;32.06;37.20;101153.53;5076184;28;20044;-76
2022/05/19 11:09:36;;;;;;;10.65;4.10;;;;;;;32.30;37.83;101150.66;5078461;28;20553;-76
2022/05/19 11:12:13;;;;;;;9.35;3.78;;;;;;;32.56;37.73;101145.13;5070986;28;20131;-78
2022/05/19 11:14:55;;;;;;;7.18;3.50;;;;;;;32.43;36.08;101156.53;5073326;28;20131;-77
2022/05/19 11:17:30;;;;;;;10.38;3.80;;;;;;;32.45;37.40;101156.72;5077840;28;20054;-78
2022/05/19 11:20:29;;;;;;;8.63;3.80;;;;;;;32.48;36.96;101154.88;5085011;28;20044;-77
2022/05/19 11:23:05;;;;;;;8.50;3.63;;;;;;;32.63;36.68;101152.34;5067706;28;20489;-78
2022/05/19 11:28:32;;;;;;;8.40;4.13;;;;;;;32.97;37.09;101162.84;5074275;28;20059;-77
2022/05/19 11:31:10;;;;;;;8.15;3.35;;;;;;;32.56;36.13;101150.88;5081670;28;20040;-79
2022/05/19 11:33:40;;;;;;;5.38;3.05;;;;;;;32.35;36.52;101154.78;5078199;28;20052;-78
2022/05/19 11:36:42;;;;;;;6.53;3.78;;;;;;;32.44;35.58;101149.47;5086172;28;20134;-77
2022/05/19 11:39:25;;;;;;;7.07;3.30;;;;;;;32.50;35.12;101146.53;5080549;28;20154;-77
2022/05/19 11:41:55;;;;;;;6.28;3.05;;;;;;;32.48;36.32;101137.69;5076877;28;20144;-76
2022/05/19 11:44:28;;;;;;;7.82;3.17;;;;;;;32.57;36.29;101146.72;5079314;28;20115;-78
2022/05/19 11:47:04;;;;;;;7.60;3.83;;;;;;;32.09;36.96;101143.84;5082673;28;20127;-78
2022/05/19 11:55:39;;;;;;;6.88;3.50;;;;;;;31.35;39.02;101143.47;5079638;28;20071;-77
2022/05/19 11:58:20;;;;;;;9.55;4.28;;;;;;;31.64;38.95;101134.91;5075715;28;20098;-77